createdAt,value
2017-08-02T00:00:11.531Z,995.68
2017-08-02T00:01:11.559Z,995.77
2017-08-02T00:02:11.584Z,995.77
2017-08-02T00:03:11.616Z,995.72
2017-08-02T00:04:11.641Z,995.72
2017-08-02T00:05:11.675Z,995.71
2017-08-02T00:06:11.702Z,995.77
2017-08-02T00:07:11.733Z,995.75
2017-08-02T00:08:11.762Z,995.71
2017-08-02T00:09:11.790Z,995.73
2017-08-02T00:10:11.819Z,995.71
2017-08-02T00:11:11.843Z,995.69
2017-08-02T00:12:11.876Z,995.68
2017-08-02T00:13:11.905Z,995.67
2017-08-02T00:14:11.929Z,995.65
2017-08-02T00:15:11.960Z,995.68
2017-08-02T00:16:11.991Z,995.7
2017-08-02T00:17:12.021Z,995.73
2017-08-02T00:18:12.049Z,995.74
2017-08-02T00:19:12.078Z,995.76
2017-08-02T00:20:12.107Z,995.73
2017-08-02T00:21:12.140Z,995.73
2017-08-02T00:22:12.165Z,995.68
2017-08-02T00:23:12.194Z,995.7
2017-08-02T00:24:12.226Z,995.73
2017-08-02T00:25:12.255Z,995.7
2017-08-02T00:26:12.284Z,995.71
2017-08-02T00:27:12.311Z,995.7
2017-08-02T00:28:12.340Z,995.68
2017-08-02T00:29:12.367Z,995.72
2017-08-02T00:30:12.398Z,995.71
2017-08-02T00:31:12.427Z,995.69
2017-08-02T00:32:12.456Z,995.66
2017-08-02T00:33:12.482Z,995.66
2017-08-02T00:34:12.514Z,995.64
2017-08-02T00:35:12.544Z,995.63
2017-08-02T00:36:12.573Z,995.68
2017-08-02T00:37:12.600Z,995.68
2017-08-02T00:38:12.630Z,995.66
2017-08-02T00:39:12.656Z,995.68
2017-08-02T00:40:12.687Z,995.7
2017-08-02T00:41:12.716Z,995.7
2017-08-02T00:42:12.746Z,995.68
2017-08-02T00:43:12.778Z,995.68
2017-08-02T00:44:12.803Z,995.69
2017-08-02T00:45:12.827Z,995.65
2017-08-02T00:46:12.860Z,995.65
2017-08-02T00:47:12.892Z,995.61
2017-08-02T00:48:12.918Z,995.6
2017-08-02T00:49:12.966Z,995.6
2017-08-02T00:50:12.975Z,995.56
2017-08-02T00:51:13.004Z,995.6
2017-08-02T00:52:13.033Z,995.61
2017-08-02T00:53:13.062Z,995.64
2017-08-02T00:54:13.090Z,995.58
2017-08-02T00:55:13.121Z,995.59
2017-08-02T00:56:13.149Z,995.57
2017-08-02T00:57:13.179Z,995.58
2017-08-02T00:58:13.211Z,995.56
2017-08-02T00:59:13.237Z,995.58
2017-08-02T01:00:13.267Z,995.63
2017-08-02T01:01:13.298Z,995.58
2017-08-02T01:02:13.326Z,995.56
2017-08-02T01:03:13.354Z,995.57
2017-08-02T01:04:13.382Z,995.53
2017-08-02T01:05:13.412Z,995.54
2017-08-02T01:06:13.441Z,995.54
2017-08-02T01:07:13.720Z,995.53
2017-08-02T01:08:13.498Z,995.49
2017-08-02T01:09:13.527Z,995.49
2017-08-02T01:10:13.555Z,995.49
2017-08-02T01:11:13.584Z,995.52
2017-08-02T01:12:13.865Z,995.5
2017-08-02T01:13:13.642Z,995.51
2017-08-02T01:14:13.671Z,995.49
2017-08-02T01:15:13.700Z,995.51
2017-08-02T01:16:13.728Z,995.51
2017-08-02T01:17:14.054Z,995.53
2017-08-02T01:18:13.786Z,995.52
2017-08-02T01:19:13.815Z,995.52
2017-08-02T01:20:13.844Z,995.55
2017-08-02T01:21:13.869Z,995.55
2017-08-02T01:22:14.153Z,995.48
2017-08-02T01:23:13.935Z,995.46
2017-08-02T01:24:13.959Z,995.44
2017-08-02T01:25:13.988Z,995.49
2017-08-02T01:26:14.018Z,995.49
2017-08-02T01:27:14.055Z,995.49
2017-08-02T01:28:14.074Z,995.52
2017-08-02T01:29:14.108Z,995.5
2017-08-02T01:30:14.136Z,995.5
2017-08-02T01:31:14.164Z,995.54
2017-08-02T01:32:14.193Z,995.55
2017-08-02T01:33:14.229Z,995.58
2017-08-02T01:34:14.251Z,995.54
2017-08-02T01:35:14.281Z,995.61
2017-08-02T01:36:14.311Z,995.58
2017-08-02T01:37:14.341Z,995.58
2017-08-02T01:38:14.365Z,995.58
2017-08-02T01:39:14.391Z,995.62
2017-08-02T01:40:14.424Z,995.62
2017-08-02T01:41:14.454Z,995.61
2017-08-02T01:42:14.482Z,995.62
2017-08-02T01:43:14.510Z,995.64
2017-08-02T01:44:14.540Z,995.62
2017-08-02T01:45:14.572Z,995.64
2017-08-02T01:46:14.598Z,995.6
2017-08-02T01:47:14.647Z,995.6
2017-08-02T01:48:14.654Z,995.62
2017-08-02T01:49:14.683Z,995.61
2017-08-02T01:50:14.708Z,995.54
2017-08-02T01:51:14.753Z,995.58
2017-08-02T01:52:14.770Z,995.56
2017-08-02T01:53:14.799Z,995.52
2017-08-02T01:54:14.824Z,995.49
2017-08-02T01:55:14.857Z,995.45
2017-08-02T01:56:14.885Z,995.45
2017-08-02T01:57:14.914Z,995.39
2017-08-02T01:58:14.943Z,995.42
2017-08-02T01:59:14.971Z,995.4
2017-08-02T02:00:15.001Z,995.36
2017-08-02T02:01:15.030Z,995.42
2017-08-02T02:02:15.058Z,995.36
2017-08-02T02:03:15.087Z,995.41
2017-08-02T02:04:15.116Z,995.33
2017-08-02T02:05:15.146Z,995.36
2017-08-02T02:06:15.173Z,995.32
2017-08-02T02:07:15.202Z,995.3
2017-08-02T02:08:15.231Z,995.31
2017-08-02T02:09:15.260Z,995.3
2017-08-02T02:10:15.289Z,995.27
2017-08-02T02:11:15.321Z,995.27
2017-08-02T02:12:15.347Z,995.27
2017-08-02T02:13:15.376Z,995.31
2017-08-02T02:14:15.405Z,995.3
2017-08-02T02:15:15.442Z,995.3
2017-08-02T02:16:15.462Z,995.28
2017-08-02T02:17:15.493Z,995.26
2017-08-02T02:18:15.526Z,995.32
2017-08-02T02:19:15.545Z,995.32
2017-08-02T02:20:15.587Z,995.35
2017-08-02T02:21:15.615Z,995.39
2017-08-02T02:22:15.645Z,995.38
2017-08-02T02:23:15.676Z,995.4
2017-08-02T02:24:15.702Z,995.43
2017-08-02T02:25:15.730Z,995.41
2017-08-02T02:26:15.758Z,995.42
2017-08-02T02:27:15.778Z,995.47
2017-08-02T02:28:15.812Z,995.46
2017-08-02T02:29:15.841Z,995.43
2017-08-02T02:30:15.865Z,995.51
2017-08-02T02:31:15.898Z,995.48
2017-08-02T02:32:15.927Z,995.49
2017-08-02T02:33:15.958Z,995.55
2017-08-02T02:34:15.984Z,995.54
2017-08-02T02:35:16.008Z,995.52
2017-08-02T02:36:16.042Z,995.55
2017-08-02T02:37:16.072Z,995.58
2017-08-02T02:38:16.100Z,995.61
2017-08-02T02:39:16.129Z,995.66
2017-08-02T02:40:16.157Z,995.65
2017-08-02T02:41:16.187Z,995.62
2017-08-02T02:42:16.216Z,995.59
2017-08-02T02:43:16.244Z,995.54
2017-08-02T02:44:16.268Z,995.52
2017-08-02T02:45:16.302Z,995.57
2017-08-02T02:46:16.326Z,995.56
2017-08-02T02:47:16.360Z,995.6
2017-08-02T02:48:16.388Z,995.62
2017-08-02T02:49:16.417Z,995.62
2017-08-02T02:50:16.446Z,995.61
2017-08-02T02:51:16.469Z,995.59
2017-08-02T02:52:16.504Z,995.59
2017-08-02T02:53:16.784Z,995.64
2017-08-02T02:54:16.563Z,995.71
2017-08-02T02:55:16.590Z,995.74
2017-08-02T02:56:16.619Z,995.7
2017-08-02T02:57:16.646Z,995.74
2017-08-02T02:58:16.976Z,995.75
2017-08-02T02:59:16.706Z,995.75
2017-08-02T03:00:16.734Z,995.73
2017-08-02T03:01:16.763Z,995.76
2017-08-02T03:02:16.787Z,995.77
2017-08-02T03:03:17.067Z,995.82
2017-08-02T03:04:16.849Z,995.79
2017-08-02T03:05:16.876Z,995.8
2017-08-02T03:06:16.907Z,995.81
2017-08-02T03:07:16.936Z,995.82
2017-08-02T03:08:17.216Z,995.81
2017-08-02T03:09:16.995Z,995.83
2017-08-02T03:10:17.016Z,995.8
2017-08-02T03:11:17.050Z,995.8
2017-08-02T03:12:17.076Z,995.8
2017-08-02T03:13:17.113Z,995.83
2017-08-02T03:14:17.136Z,995.81
2017-08-02T03:15:17.169Z,995.81
2017-08-02T03:16:17.195Z,995.87
2017-08-02T03:17:17.224Z,995.89
2017-08-02T03:18:17.252Z,995.89
2017-08-02T03:19:17.281Z,995.9
2017-08-02T03:20:17.310Z,995.97
2017-08-02T03:21:17.338Z,995.96
2017-08-02T03:22:17.367Z,995.92
2017-08-02T03:23:17.394Z,995.95
2017-08-02T03:24:17.425Z,995.94
2017-08-02T03:25:17.458Z,995.96
2017-08-02T03:26:17.482Z,995.99
2017-08-02T03:27:17.511Z,996.03
2017-08-02T03:28:17.541Z,996.04
2017-08-02T03:29:17.565Z,996.03
2017-08-02T03:30:17.599Z,996.04
2017-08-02T03:31:17.628Z,996.05
2017-08-02T03:32:17.654Z,996.04
2017-08-02T03:33:17.685Z,996.03
2017-08-02T03:34:17.713Z,996.04
2017-08-02T03:35:17.744Z,996.04
2017-08-02T03:36:17.772Z,996.05
2017-08-02T03:37:17.801Z,996.03
2017-08-02T03:38:17.833Z,996.05
2017-08-02T03:39:17.861Z,996.01
2017-08-02T03:40:17.887Z,996.05
2017-08-02T03:41:17.915Z,996.04
2017-08-02T03:42:17.942Z,996.05
2017-08-02T03:43:17.970Z,996.06
2017-08-02T03:44:18.007Z,996.09
2017-08-02T03:45:18.027Z,996.13
2017-08-02T03:46:18.060Z,996.11
2017-08-02T03:47:18.089Z,996.15
2017-08-02T03:48:18.114Z,996.17
2017-08-02T03:49:18.146Z,996.12
2017-08-02T03:50:18.175Z,996.14
2017-08-02T03:51:18.204Z,996.2
2017-08-02T03:52:18.233Z,996.19
2017-08-02T03:53:18.263Z,996.23
2017-08-02T03:54:18.290Z,996.25
2017-08-02T03:55:18.319Z,996.25
2017-08-02T03:56:18.349Z,996.28
2017-08-02T03:57:18.376Z,996.3
2017-08-02T03:58:18.408Z,996.31
2017-08-02T03:59:18.434Z,996.26
2017-08-02T04:00:18.462Z,996.32
2017-08-02T04:01:18.495Z,996.29
2017-08-02T04:02:18.521Z,996.28
2017-08-02T04:03:18.550Z,996.23
2017-08-02T04:04:18.579Z,996.24
2017-08-02T04:05:18.604Z,996.25
2017-08-02T04:06:18.632Z,996.28
2017-08-02T04:07:18.665Z,996.3
2017-08-02T04:08:18.694Z,996.26
2017-08-02T04:09:18.718Z,996.29
2017-08-02T04:10:18.748Z,996.31
2017-08-02T04:11:18.770Z,996.3
2017-08-02T04:12:18.810Z,996.29
2017-08-02T04:13:18.838Z,996.31
2017-08-02T04:14:18.866Z,996.36
2017-08-02T04:15:18.895Z,996.32
2017-08-02T04:16:18.920Z,996.31
2017-08-02T04:17:18.961Z,996.3
2017-08-02T04:18:18.982Z,996.31
2017-08-02T04:19:19.010Z,996.36
2017-08-02T04:20:19.035Z,996.36
2017-08-02T04:21:19.064Z,996.4
2017-08-02T04:22:19.089Z,996.38
2017-08-02T04:23:19.122Z,996.39
2017-08-02T04:24:19.152Z,996.42
2017-08-02T04:25:19.180Z,996.43
2017-08-02T04:26:19.204Z,996.47
2017-08-02T04:27:19.237Z,996.49
2017-08-02T04:28:19.267Z,996.51
2017-08-02T04:29:19.295Z,996.53
2017-08-02T04:30:19.324Z,996.55
2017-08-02T04:31:19.354Z,996.54
2017-08-02T04:32:19.381Z,996.55
2017-08-02T04:33:19.410Z,996.52
2017-08-02T04:34:19.438Z,996.56
2017-08-02T04:35:19.467Z,996.56
2017-08-02T04:36:19.496Z,996.54
2017-08-02T04:37:19.526Z,996.53
2017-08-02T04:38:19.554Z,996.53
2017-08-02T04:39:19.585Z,996.51
2017-08-02T04:40:19.607Z,996.52
2017-08-02T04:41:19.642Z,996.53
2017-08-02T04:42:19.670Z,996.57
2017-08-02T04:43:19.698Z,996.57
2017-08-02T04:44:19.726Z,996.51
2017-08-02T04:45:19.756Z,996.55
2017-08-02T04:46:19.790Z,996.56
2017-08-02T04:47:19.814Z,996.56
2017-08-02T04:48:19.841Z,996.53
2017-08-02T04:49:19.873Z,996.55
2017-08-02T04:50:19.895Z,996.54
2017-08-02T04:51:19.928Z,996.56
2017-08-02T04:52:19.958Z,996.51
2017-08-02T04:53:19.985Z,996.54
2017-08-02T04:54:20.017Z,996.53
2017-08-02T04:55:20.044Z,996.51
2017-08-02T04:56:20.064Z,996.48
2017-08-02T04:57:20.098Z,996.52
2017-08-02T04:58:20.125Z,996.49
2017-08-02T04:59:20.431Z,996.47
2017-08-02T05:00:20.183Z,996.46
2017-08-02T05:01:20.212Z,996.5
2017-08-02T05:02:20.241Z,996.48
2017-08-02T05:03:20.269Z,996.49
2017-08-02T05:04:20.598Z,996.56
2017-08-02T05:05:20.327Z,996.57
2017-08-02T05:06:20.359Z,996.55
2017-08-02T05:07:20.387Z,996.54
2017-08-02T05:08:20.416Z,996.59
2017-08-02T05:09:20.695Z,996.59
2017-08-02T05:10:20.470Z,996.61
2017-08-02T05:11:20.501Z,996.59
2017-08-02T05:12:20.530Z,996.58
2017-08-02T05:13:20.559Z,996.59
2017-08-02T05:14:20.882Z,996.58
2017-08-02T05:15:20.617Z,996.59
2017-08-02T05:16:20.645Z,996.54
2017-08-02T05:17:20.675Z,996.59
2017-08-02T05:18:20.703Z,996.54
2017-08-02T05:19:20.983Z,996.57
2017-08-02T05:20:20.760Z,996.59
2017-08-02T05:21:20.792Z,996.62
2017-08-02T05:22:20.818Z,996.66
2017-08-02T05:23:20.847Z,996.65
2017-08-02T05:24:21.176Z,996.66
2017-08-02T05:25:20.905Z,996.65
2017-08-02T05:26:20.933Z,996.65
2017-08-02T05:27:20.962Z,996.66
2017-08-02T05:28:20.991Z,996.64
2017-08-02T05:29:21.020Z,996.67
2017-08-02T05:30:21.047Z,996.69
2017-08-02T05:31:21.077Z,996.72
2017-08-02T05:32:21.112Z,996.73
2017-08-02T05:33:21.134Z,996.71
2017-08-02T05:34:21.164Z,996.71
2017-08-02T05:35:21.192Z,996.74
2017-08-02T05:36:21.221Z,996.77
2017-08-02T05:37:21.250Z,996.81
2017-08-02T05:38:21.280Z,996.82
2017-08-02T05:39:21.307Z,996.86
2017-08-02T05:40:21.332Z,996.89
2017-08-02T05:41:21.361Z,996.84
2017-08-02T05:42:21.393Z,996.86
2017-08-02T05:43:21.423Z,996.79
2017-08-02T05:44:21.447Z,996.86
2017-08-02T05:45:21.476Z,996.84
2017-08-02T05:46:21.507Z,996.87
2017-08-02T05:47:21.539Z,996.87
2017-08-02T05:48:21.567Z,996.85
2017-08-02T05:49:21.596Z,996.9
2017-08-02T05:50:21.625Z,996.88
2017-08-02T05:51:21.649Z,996.87
2017-08-02T05:52:21.683Z,996.91
2017-08-02T05:53:21.711Z,996.93
2017-08-02T05:54:21.750Z,996.91
2017-08-02T05:55:21.764Z,996.93
2017-08-02T05:56:21.794Z,996.91
2017-08-02T05:57:21.831Z,996.94
2017-08-02T05:58:21.852Z,996.92
2017-08-02T05:59:21.879Z,996.92
2017-08-02T06:00:21.904Z,996.91
2017-08-02T06:01:21.956Z,996.92
2017-08-02T06:02:21.966Z,996.95
2017-08-02T06:03:21.995Z,996.96
2017-08-02T06:04:22.022Z,996.97
2017-08-02T06:05:22.053Z,996.95
2017-08-02T06:06:22.078Z,996.94
2017-08-02T06:07:22.105Z,996.93
2017-08-02T06:08:22.139Z,996.86
2017-08-02T06:09:22.167Z,996.88
2017-08-02T06:10:22.196Z,996.87
2017-08-02T06:11:22.225Z,996.85
2017-08-02T06:12:22.254Z,996.85
2017-08-02T06:13:22.288Z,996.84
2017-08-02T06:14:22.312Z,996.85
2017-08-02T06:15:22.342Z,996.86
2017-08-02T06:16:22.373Z,996.87
2017-08-02T06:17:22.398Z,996.9
2017-08-02T06:18:22.428Z,996.87
2017-08-02T06:19:22.461Z,996.92
2017-08-02T06:20:22.481Z,996.86
2017-08-02T06:21:22.514Z,996.87
2017-08-02T06:22:22.544Z,996.88
2017-08-02T06:23:22.576Z,996.88
2017-08-02T06:24:22.600Z,996.89
2017-08-02T06:25:22.626Z,996.93
2017-08-02T06:26:22.661Z,996.91
2017-08-02T06:27:22.691Z,996.91
2017-08-02T06:28:22.718Z,996.92
2017-08-02T06:29:22.752Z,996.9
2017-08-02T06:30:22.776Z,996.92
2017-08-02T06:31:22.804Z,996.92
2017-08-02T06:32:22.831Z,996.92
2017-08-02T06:33:22.862Z,996.88
2017-08-02T06:34:22.891Z,996.93
2017-08-02T06:35:22.922Z,996.93
2017-08-02T06:36:22.950Z,996.97
2017-08-02T06:37:22.977Z,996.94
2017-08-02T06:38:23.004Z,996.97
2017-08-02T06:39:23.031Z,996.98
2017-08-02T06:40:23.062Z,996.99
2017-08-02T06:41:23.090Z,997.02
2017-08-02T06:42:23.119Z,997.02
2017-08-02T06:43:23.149Z,997
2017-08-02T06:44:23.177Z,996.99
2017-08-02T06:45:23.201Z,997
2017-08-02T06:46:23.237Z,996.99
2017-08-02T06:47:23.262Z,997.02
2017-08-02T06:48:23.291Z,997.01
2017-08-02T06:49:23.320Z,997.03
2017-08-02T06:50:23.354Z,997.03
2017-08-02T06:51:23.377Z,997
2017-08-02T06:52:23.408Z,997.04
2017-08-02T06:53:23.437Z,997.01
2017-08-02T06:54:23.465Z,997.04
2017-08-02T06:55:23.494Z,997.03
2017-08-02T06:56:23.524Z,997.05
2017-08-02T06:57:23.553Z,997.05
2017-08-02T06:58:23.581Z,997.09
2017-08-02T06:59:23.609Z,997.11
2017-08-02T07:00:23.638Z,997.1
2017-08-02T07:01:23.667Z,997.09
2017-08-02T07:02:23.696Z,997.08
2017-08-02T07:03:23.717Z,997.07
2017-08-02T07:04:23.754Z,997.07
2017-08-02T07:05:23.777Z,997.08
2017-08-02T07:06:23.811Z,997.12
2017-08-02T07:07:23.840Z,997.11
2017-08-02T07:08:23.868Z,997.1
2017-08-02T07:09:23.898Z,997.16
2017-08-02T07:10:23.926Z,997.13
2017-08-02T07:11:23.959Z,997.1
2017-08-02T07:12:23.985Z,997.11
2017-08-02T07:13:24.011Z,997.11
2017-08-02T07:14:24.045Z,997.14
2017-08-02T07:15:24.070Z,997.12
2017-08-02T07:16:24.100Z,997.14
2017-08-02T07:17:24.129Z,997.14
2017-08-02T07:18:24.160Z,997.15
2017-08-02T07:19:24.185Z,997.19
2017-08-02T07:20:24.218Z,997.17
2017-08-02T07:21:24.247Z,997.2
2017-08-02T07:22:24.273Z,997.2
2017-08-02T07:23:24.301Z,997.21
2017-08-02T07:24:24.333Z,997.2
2017-08-02T07:25:24.363Z,997.18
2017-08-02T07:26:24.391Z,997.18
2017-08-02T07:27:24.420Z,997.21
2017-08-02T07:28:24.448Z,997.2
2017-08-02T07:29:24.478Z,997.23
2017-08-02T07:30:24.512Z,997.21
2017-08-02T07:31:24.535Z,997.21
2017-08-02T07:32:24.563Z,997.2
2017-08-02T07:33:24.593Z,997.22
2017-08-02T07:34:24.621Z,997.19
2017-08-02T07:35:24.649Z,997.22
2017-08-02T07:36:24.677Z,997.25
2017-08-02T07:37:24.707Z,997.25
2017-08-02T07:38:24.736Z,997.26
2017-08-02T07:39:24.765Z,997.23
2017-08-02T07:40:24.797Z,997.22
2017-08-02T07:41:24.828Z,997.21
2017-08-02T07:42:24.851Z,997.22
2017-08-02T07:43:24.880Z,997.22
2017-08-02T07:44:24.910Z,997.24
2017-08-02T07:45:24.955Z,997.2
2017-08-02T07:46:24.968Z,997.23
2017-08-02T07:47:24.997Z,997.26
2017-08-02T07:48:25.026Z,997.27
2017-08-02T07:49:25.054Z,997.27
2017-08-02T07:50:25.079Z,997.23
2017-08-02T07:51:25.115Z,997.24
2017-08-02T07:52:25.142Z,997.23
2017-08-02T07:53:25.170Z,997.2
2017-08-02T07:54:25.202Z,997.17
2017-08-02T07:55:25.525Z,997.15
2017-08-02T07:56:25.256Z,997.2
2017-08-02T07:57:25.289Z,997.15
2017-08-02T07:58:25.317Z,997.26
2017-08-02T07:59:25.341Z,997.26
2017-08-02T08:00:25.673Z,997.22
2017-08-02T08:01:25.398Z,997.26
2017-08-02T08:02:25.431Z,997.27
2017-08-02T08:03:25.461Z,997.27
2017-08-02T08:04:25.494Z,997.3
2017-08-02T08:05:25.818Z,997.28
2017-08-02T08:06:25.547Z,997.28
2017-08-02T08:07:25.577Z,997.28
2017-08-02T08:08:25.606Z,997.32
2017-08-02T08:09:25.634Z,997.32
2017-08-02T08:10:25.964Z,997.39
2017-08-02T08:11:25.698Z,997.37
2017-08-02T08:12:25.720Z,997.39
2017-08-02T08:13:25.752Z,997.39
2017-08-02T08:14:25.778Z,997.43
2017-08-02T08:15:26.104Z,997.4
2017-08-02T08:16:25.836Z,997.4
2017-08-02T08:17:25.865Z,997.44
2017-08-02T08:18:25.892Z,997.42
2017-08-02T08:19:25.926Z,997.4
2017-08-02T08:20:26.202Z,997.38
2017-08-02T08:21:25.979Z,997.37
2017-08-02T08:22:26.004Z,997.35
2017-08-02T08:23:26.037Z,997.33
2017-08-02T08:24:26.064Z,997.32
2017-08-02T08:25:26.096Z,997.33
2017-08-02T08:26:26.124Z,997.34
2017-08-02T08:27:26.157Z,997.36
2017-08-02T08:28:26.181Z,997.36
2017-08-02T08:29:26.210Z,997.38
2017-08-02T08:30:26.243Z,997.37
2017-08-02T08:31:26.273Z,997.34
2017-08-02T08:32:26.297Z,997.31
2017-08-02T08:33:26.331Z,997.32
2017-08-02T08:34:26.361Z,997.34
2017-08-02T08:35:26.387Z,997.3
2017-08-02T08:36:26.417Z,997.3
2017-08-02T08:37:26.448Z,997.27
2017-08-02T08:38:26.474Z,997.27
2017-08-02T08:39:26.503Z,997.28
2017-08-02T08:40:26.530Z,997.33
2017-08-02T08:41:26.560Z,997.33
2017-08-02T08:42:26.589Z,997.33
2017-08-02T08:43:26.618Z,997.37
2017-08-02T08:44:26.646Z,997.36
2017-08-02T08:45:26.675Z,997.38
2017-08-02T08:46:26.704Z,997.38
2017-08-02T08:47:26.731Z,997.34
2017-08-02T08:48:26.761Z,997.31
2017-08-02T08:49:26.789Z,997.31
2017-08-02T08:50:26.819Z,997.37
2017-08-02T08:51:26.848Z,997.36
2017-08-02T08:52:26.881Z,997.37
2017-08-02T08:53:26.909Z,997.38
2017-08-02T08:54:26.938Z,997.33
2017-08-02T08:55:26.967Z,997.36
2017-08-02T08:56:26.991Z,997.39
2017-08-02T08:57:27.020Z,997.37
2017-08-02T08:58:27.054Z,997.37
2017-08-02T08:59:27.083Z,997.34
2017-08-02T09:00:27.111Z,997.37
2017-08-02T09:01:27.141Z,997.35
2017-08-02T09:02:27.173Z,997.37
2017-08-02T09:03:27.209Z,997.38
2017-08-02T09:04:27.229Z,997.39
2017-08-02T09:05:27.259Z,997.36
2017-08-02T09:06:27.303Z,997.35
2017-08-02T09:07:27.317Z,997.36
2017-08-02T09:08:27.348Z,997.36
2017-08-02T09:09:27.375Z,997.33
2017-08-02T09:10:27.399Z,997.31
2017-08-02T09:11:27.438Z,997.33
2017-08-02T09:12:27.462Z,997.28
2017-08-02T09:13:27.494Z,997.29
2017-08-02T09:14:27.523Z,997.3
2017-08-02T09:15:27.556Z,997.28
2017-08-02T09:16:27.582Z,997.28
2017-08-02T09:17:27.609Z,997.32
2017-08-02T09:18:27.640Z,997.29
2017-08-02T09:19:27.668Z,997.29
2017-08-02T09:20:27.698Z,997.23
2017-08-02T09:21:27.726Z,997.2
2017-08-02T09:22:27.758Z,997.17
2017-08-02T09:23:27.786Z,997.15
2017-08-02T09:24:27.816Z,997.18
2017-08-02T09:25:27.844Z,997.17
2017-08-02T09:26:27.872Z,997.22
2017-08-02T09:27:27.904Z,997.24
2017-08-02T09:28:27.931Z,997.25
2017-08-02T09:29:27.961Z,997.24
2017-08-02T09:30:27.992Z,997.23
2017-08-02T09:31:28.019Z,997.21
2017-08-02T09:32:28.049Z,997.2
2017-08-02T09:33:28.079Z,997.25
2017-08-02T09:34:28.106Z,997.25
2017-08-02T09:35:28.138Z,997.22
2017-08-02T09:36:28.168Z,997.23
2017-08-02T09:37:28.198Z,997.21
2017-08-02T09:38:28.226Z,997.21
2017-08-02T09:39:28.256Z,997.16
2017-08-02T09:40:28.283Z,997.19
2017-08-02T09:41:28.625Z,997.16
2017-08-02T09:42:28.343Z,997.18
2017-08-02T09:43:28.375Z,997.15
2017-08-02T09:44:28.400Z,997.19
2017-08-02T09:45:28.432Z,997.14
2017-08-02T09:46:28.762Z,997.11
2017-08-02T09:47:28.487Z,997.08
2017-08-02T09:48:28.519Z,997.07
2017-08-02T09:49:28.548Z,997.07
2017-08-02T09:50:28.581Z,997.08
2017-08-02T09:51:28.861Z,997.1
2017-08-02T09:52:28.638Z,997.11
2017-08-02T09:53:28.669Z,997.08
2017-08-02T09:54:28.696Z,997.09
2017-08-02T09:55:28.727Z,997.06
2017-08-02T09:56:29.052Z,997.08
2017-08-02T09:57:28.787Z,997.05
2017-08-02T09:58:28.815Z,997.04
2017-08-02T09:59:28.843Z,997.04
2017-08-02T10:00:28.872Z,997.01
2017-08-02T10:01:29.201Z,997.03
2017-08-02T10:02:28.934Z,997.02
2017-08-02T10:03:28.964Z,997
2017-08-02T10:04:28.991Z,996.96
2017-08-02T10:05:29.021Z,996.92
2017-08-02T10:06:29.053Z,996.95
2017-08-02T10:07:29.082Z,996.97
2017-08-02T10:08:29.110Z,996.94
2017-08-02T10:09:29.140Z,996.97
2017-08-02T10:10:29.168Z,997.01
2017-08-02T10:11:29.197Z,997.03
2017-08-02T10:12:29.230Z,997
2017-08-02T10:13:29.258Z,997.01
2017-08-02T10:14:29.286Z,997.01
2017-08-02T10:15:29.317Z,996.95
2017-08-02T10:16:29.354Z,997.01
2017-08-02T10:17:29.376Z,997.02
2017-08-02T10:18:29.407Z,996.97
2017-08-02T10:19:29.431Z,996.96
2017-08-02T10:20:29.468Z,996.98
2017-08-02T10:21:29.496Z,997
2017-08-02T10:22:29.526Z,997.02
2017-08-02T10:23:29.556Z,997.01
2017-08-02T10:24:29.588Z,996.99
2017-08-02T10:25:29.617Z,997
2017-08-02T10:26:29.646Z,997
2017-08-02T10:27:29.675Z,997.01
2017-08-02T10:28:29.702Z,997.05
2017-08-02T10:29:29.739Z,997.02
2017-08-02T10:30:29.765Z,996.99
2017-08-02T10:31:29.794Z,996.95
2017-08-02T10:32:29.828Z,996.93
2017-08-02T10:33:29.856Z,996.9
2017-08-02T10:34:29.885Z,996.9
2017-08-02T10:35:29.918Z,996.93
2017-08-02T10:36:29.939Z,996.94
2017-08-02T10:37:29.980Z,996.9
2017-08-02T10:38:30.006Z,996.91
2017-08-02T10:39:30.039Z,996.9
2017-08-02T10:40:30.067Z,996.95
2017-08-02T10:41:30.097Z,996.91
2017-08-02T10:42:30.128Z,996.92
2017-08-02T10:43:30.155Z,996.95
2017-08-02T10:44:30.184Z,996.95
2017-08-02T10:45:30.210Z,996.96
2017-08-02T10:46:30.246Z,997
2017-08-02T10:47:30.275Z,996.99
2017-08-02T10:48:30.306Z,996.98
2017-08-02T10:49:30.336Z,996.99
2017-08-02T10:50:30.366Z,997
2017-08-02T10:51:30.390Z,996.99
2017-08-02T10:52:30.423Z,997
2017-08-02T10:53:30.456Z,997.05
2017-08-02T10:54:30.485Z,997.01
2017-08-02T10:55:30.509Z,996.99
2017-08-02T10:56:30.541Z,996.97
2017-08-02T10:57:30.575Z,996.98
2017-08-02T10:58:30.606Z,996.95
2017-08-02T10:59:30.637Z,996.96
2017-08-02T11:00:30.677Z,996.92
2017-08-02T11:01:30.695Z,996.97
2017-08-02T11:02:30.724Z,997
2017-08-02T11:03:30.758Z,996.99
2017-08-02T11:04:30.780Z,996.98
2017-08-02T11:05:30.813Z,996.96
2017-08-02T11:06:30.850Z,996.99
2017-08-02T11:07:30.875Z,996.96
2017-08-02T11:08:30.904Z,996.96
2017-08-02T11:09:30.937Z,996.96
2017-08-02T11:10:30.967Z,996.96
2017-08-02T11:11:30.994Z,996.97
2017-08-02T11:12:31.027Z,996.96
2017-08-02T11:13:31.052Z,996.94
2017-08-02T11:14:31.085Z,996.96
2017-08-02T11:15:31.118Z,996.94
2017-08-02T11:16:31.146Z,996.87
2017-08-02T11:17:31.475Z,996.83
2017-08-02T11:18:31.208Z,996.88
2017-08-02T11:19:31.237Z,996.83
2017-08-02T11:20:31.263Z,996.83
2017-08-02T11:21:31.298Z,996.82
2017-08-02T11:22:31.578Z,996.83
2017-08-02T11:23:31.360Z,996.82
2017-08-02T11:24:31.389Z,996.81
2017-08-02T11:25:31.418Z,996.83
2017-08-02T11:26:31.450Z,996.79
2017-08-02T11:27:31.732Z,996.8
2017-08-02T11:28:31.509Z,996.81
2017-08-02T11:29:31.538Z,996.81
2017-08-02T11:30:31.569Z,996.78
2017-08-02T11:31:31.599Z,996.79
2017-08-02T11:32:31.931Z,996.79
2017-08-02T11:33:31.661Z,996.78
2017-08-02T11:34:31.691Z,996.8
2017-08-02T11:35:31.722Z,996.8
2017-08-02T11:36:31.753Z,996.78
2017-08-02T11:37:32.081Z,996.78
2017-08-02T11:38:31.812Z,996.77
2017-08-02T11:39:31.841Z,996.76
2017-08-02T11:40:31.870Z,996.78
2017-08-02T11:41:31.905Z,996.74
2017-08-02T11:42:32.236Z,996.72
2017-08-02T11:43:31.965Z,996.69
2017-08-02T11:44:31.994Z,996.67
2017-08-02T11:45:32.026Z,996.71
2017-08-02T11:46:32.055Z,996.67
2017-08-02T11:47:32.083Z,996.7
2017-08-02T11:48:32.119Z,996.7
2017-08-02T11:49:32.143Z,996.71
2017-08-02T11:50:32.178Z,996.72
2017-08-02T11:51:32.204Z,996.71
2017-08-02T11:52:32.247Z,996.7
2017-08-02T11:53:32.261Z,996.71
2017-08-02T11:54:32.294Z,996.7
2017-08-02T11:55:32.326Z,996.67
2017-08-02T11:56:32.361Z,996.7
2017-08-02T11:57:32.389Z,996.8
2017-08-02T11:58:32.417Z,996.72
2017-08-02T11:59:32.455Z,996.73
2017-08-02T12:00:32.483Z,996.78
2017-08-02T12:01:32.515Z,996.74
2017-08-02T12:02:32.541Z,996.81
2017-08-02T12:03:32.574Z,996.73
2017-08-02T12:04:32.603Z,996.68
2017-08-02T12:05:32.634Z,996.66
2017-08-02T12:06:32.663Z,996.67
2017-08-02T12:07:32.697Z,996.59
2017-08-02T12:08:32.733Z,996.58
2017-08-02T12:09:32.777Z,996.55
2017-08-02T12:10:32.787Z,996.55
2017-08-02T12:11:32.824Z,996.59
2017-08-02T12:12:32.853Z,996.54
2017-08-02T12:13:32.887Z,996.58
2017-08-02T12:14:32.914Z,996.58
2017-08-02T12:15:32.948Z,996.54
2017-08-02T12:16:32.982Z,996.49
2017-08-02T12:17:33.009Z,996.52
2017-08-02T12:18:33.041Z,996.55
2017-08-02T12:19:33.070Z,996.46
2017-08-02T12:20:33.102Z,996.41
2017-08-02T12:21:33.135Z,996.44
2017-08-02T12:22:33.164Z,996.4
2017-08-02T12:23:33.197Z,996.37
2017-08-02T12:24:33.231Z,996.39
2017-08-02T12:25:33.258Z,996.36
2017-08-02T12:26:33.290Z,996.32
2017-08-02T12:27:33.325Z,996.32
2017-08-02T12:28:33.358Z,996.3
2017-08-02T12:29:33.387Z,996.26
2017-08-02T12:30:33.419Z,996.33
2017-08-02T12:31:33.453Z,996.31